Pagina principale
METAR-TAF:

METAR-TAF

Aeroporti :

Aeroporto di Lugano-Agno

Lugano, Svizzera

latitudine: 46-00N, longitudine: 008-58E, altezza: 273 m

Osservazione

Il bollettino è stato emesso 18 minuti fa, alle 08:20 UTC
Vento 1 kt da direzioni variabili
Temperature 6°C
Umidità 65%
Pressione 1022 hPa
Visibilità 10 km o più
Cielo coperto ad un'altezza di 5800 ft

METAR: LSZA 010820Z VRB01KT 9999 OVC058 06/M00 Q1022 NOSIG

Ora: 10:38 (08:38 UTC)

Previsione

Il bollettino è stato emesso 3 ore e 13 minuti fa, alle 05:25 UTC
Previsione valida dal 01 alle 06 UTC al 01 alle 15 UTC
Vento 3 kt da direzioni variabili
Visibilità 10 km o più
Nubi sparse ad un'altezza di 4500 ft
Nuvoloso ad un'altezza di 5000 ft

TAF: LSZA 010525Z 0106/0115 VRB03KT 9999 SCT045 BKN050

Osservazioni e previsioni meteorologiche di più di 4000 aeroporti (messaggi METAR e TAF).

Le stazioni disponibili sono rappresentate dai dischi gialli e rossi sulla carta.

Puntare il mouse per vedere il nome della stazione.

Clicca sopra per visualizzare le osservazioni e previsioni meteorologiche.

Per cambiare la mappa : fare clic sui pulsanti verdi con una croce nera per ingrandire, il pulsante verde con un trattino per diminuire, o sulla freccia verde per le mappe adiacenti.


METAR-TAF: